Milford Square, PA

10:28 PM EST on February 19, 2017 (GMT -0500)
Quakertown

Weather History for KUKT - April, 2013

Change the Weather History Date:

Saturday, April 6, 2013

  Actual Average (KABE) Record (KABE)
Temperature  
Mean Temperature 42 °F -  
Max Temperature 51 °F 54 °F 84 °F (1929)
Min Temperature 32 °F 36 °F 18 °F (1982)
Degree Days  
Heating Degree Days 24    
Moisture  
Dew Point 17 °F    
Average Humidity 39    
Maximum Humidity 60    
Minimum Humidity 22    
Precipitation  
Precipitation 0.00 in - - ()
Sea Level Pressure  
Sea Level Pressure 30.23 in    
Wind  
Wind Speed 7 mph (NW)    
Max Wind Speed 12 mph    
Max Gust Speed 21 mph    
Visibility 10 miles    
Events      
Averages and records for this station are not official NWS values.
T = Trace of Precipitation, MM = Missing Value Source: NWS Daily Summary

Daily Weather History Graph

Daily Weather History Graph

Search for Another Location

Airport or City:

Trip Planner

Search our weather history database for the weather conditions in past years. The results will help you decide how hot, cold, wet, or windy it might be!

Date:

Astronomy

Apr. 06, 2013 Rise Set
Actual Time 6:36 AM EDT 7:31 PM EDT
Civil Twilight 6:09 AM EDT 7:59 PM EDT
Nautical Twilight 5:36 AM EDT 8:32 PM EDT
Astronomical Twilight 5:02 AM EDT 9:06 PM EDT
Moon 4:19 AM EDT (4/6) 3:57 PM EDT (4/6)
Length of Visible Light 13h 50m
Length of Day
12h 54m
Waning Crescent, 15% of the Moon is Illuminated
Apr 6
Waning Crescent
Apr 10
New
Apr 18
First Quarter
Apr 25
Full
May 2
Last Quarter

Hourly Weather History & Observations

Time (EDT) Temp. Windchill Dew Point Humidity Pressure Visibility Wind Dir Wind Speed Gust Speed Precip Events Conditions
12:10 AM 39.2 °F 32.0 °F 19.4 °F 45% 30.04 in 10.0 mi North 11.5 mph 16.1 mph N/A   Clear
12:30 AM 39.2 °F 32.0 °F 19.4 °F 45% 30.04 in 10.0 mi NNW 11.5 mph 20.7 mph N/A   Clear
12:50 AM 39.2 °F 35.9 °F 21.2 °F 49% 30.06 in 10.0 mi North 4.6 mph - N/A   Clear
1:10 AM 39.2 °F 33.0 °F 21.2 °F 49% 30.06 in 10.0 mi NNW 9.2 mph - N/A   Clear
1:30 AM 37.4 °F 32.8 °F 21.2 °F 52% 30.07 in 10.0 mi North 5.8 mph - N/A   Clear
1:50 AM 37.4 °F 32.1 °F 21.2 °F 52% 30.08 in 10.0 mi North 6.9 mph - N/A   Clear
2:10 AM 37.4 °F 32.1 °F 23.0 °F 56% 30.09 in 10.0 mi North 6.9 mph - N/A   Clear
2:30 AM 37.4 °F 33.8 °F 23.0 °F 56% 30.10 in 10.0 mi North 4.6 mph - N/A   Clear
2:50 AM 35.6 °F 29.2 °F 23.0 °F 60% 30.09 in 10.0 mi North 8.1 mph - N/A   Clear
3:10 AM 35.6 °F 28.0 °F 21.2 °F 56% 30.10 in 10.0 mi North 10.4 mph - N/A   Clear
3:30 AM 35.6 °F 28.0 °F 21.2 °F 56% 30.11 in 10.0 mi North 10.4 mph 16.1 mph N/A   Clear
3:50 AM 35.6 °F 29.2 °F 21.2 °F 56% 30.11 in 10.0 mi NW 8.1 mph - N/A   Clear
4:10 AM 35.6 °F 29.9 °F 21.2 °F 56% 30.13 in 10.0 mi NW 6.9 mph - N/A   Clear
4:30 AM 33.8 °F 27.0 °F 19.4 °F 56% 30.14 in 10.0 mi NNW 8.1 mph - N/A   Clear
4:50 AM 33.8 °F 27.7 °F 19.4 °F 56% 30.14 in 10.0 mi WNW 6.9 mph - N/A   Clear
5:10 AM 33.8 °F 25.8 °F 15.8 °F 48% 30.16 in 10.0 mi WNW 10.4 mph 16.1 mph N/A   Clear
5:30 AM 32.0 °F 23.0 °F 14.0 °F 48% 30.17 in 10.0 mi NNW 11.5 mph - N/A   Clear
5:50 AM 32.0 °F 25.6 °F 12.2 °F 44% 30.18 in 10.0 mi NW 6.9 mph - N/A   Clear
6:10 AM 32.0 °F 24.8 °F 14.0 °F 48% 30.19 in 10.0 mi North 8.1 mph - N/A   Clear
6:30 AM 32.0 °F 24.2 °F 14.0 °F 48% 30.20 in 10.0 mi NNW 9.2 mph - N/A   Clear
6:50 AM 32.0 °F 26.4 °F 14.0 °F 48% 30.21 in 10.0 mi North 5.8 mph - N/A   Clear
7:10 AM 32.0 °F 28.7 °F 14.0 °F 48% 30.23 in 10.0 mi NNW 3.5 mph - N/A   Clear
7:30 AM 32.0 °F 28.7 °F 15.8 °F 51% 30.25 in 10.0 mi WNW 3.5 mph - N/A   Clear
8:10 AM 33.8 °F 26.4 °F 15.8 °F 48% 30.27 in 10.0 mi North 9.2 mph - N/A   Clear
8:30 AM 35.6 °F 28.0 °F 15.8 °F 44% 30.28 in 10.0 mi West 10.4 mph - N/A   Clear
8:50 AM 35.6 °F 30.7 °F 15.8 °F 44% 30.29 in 10.0 mi North 5.8 mph - N/A   Clear
9:10 AM 35.6 °F 30.7 °F 15.8 °F 44% 30.30 in 10.0 mi WNW 5.8 mph - N/A   Clear
9:30 AM 35.6 °F 31.7 °F 15.8 °F 44% 30.30 in 10.0 mi NE 4.6 mph - N/A   Clear
9:50 AM 37.4 °F 31.4 °F 15.8 °F 41% 30.30 in 10.0 mi North 8.1 mph - N/A   Clear
10:10 AM 37.4 °F 32.1 °F 15.8 °F 41% 30.31 in 10.0 mi NNW 6.9 mph - N/A   Clear
10:30 AM 39.2 °F 35.9 °F 17.6 °F 42% 30.31 in 10.0 mi NNW 4.6 mph - N/A   Clear
10:50 AM 39.2 °F - 15.8 °F 39% 30.32 in 10.0 mi Calm Calm - N/A   Clear
11:10 AM 39.2 °F 35.9 °F 15.8 °F 39% 30.31 in 10.0 mi NW 4.6 mph - N/A   Clear
11:30 AM 41.0 °F 34.7 °F 15.8 °F 36% 30.31 in 10.0 mi North 10.4 mph 16.1 mph N/A   Clear
11:50 AM 41.0 °F 35.2 °F 14.0 °F 33% 30.31 in 10.0 mi NNE 9.2 mph - N/A   Clear
12:10 PM 42.8 °F 39.3 °F 14.0 °F 31% 30.31 in 10.0 mi NE 5.8 mph 16.1 mph N/A   Clear
12:30 PM 44.6 °F 41.4 °F 14.0 °F 29% 30.30 in 10.0 mi West 5.8 mph - N/A   Clear
12:50 PM 44.6 °F 39.7 °F 14.0 °F 29% 30.30 in 10.0 mi NNE 9.2 mph - N/A   Clear
1:10 PM 44.6 °F 43.1 °F 14.0 °F 29% 30.29 in 10.0 mi West 3.5 mph - N/A   Clear
1:30 PM 44.6 °F 43.1 °F 14.0 °F 29% 30.29 in 10.0 mi North 3.5 mph - N/A   Clear
1:50 PM 46.4 °F 42.9 °F 14.0 °F 27% 30.29 in 10.0 mi WNW 6.9 mph - N/A   Clear
2:10 PM 46.4 °F 43.5 °F 15.8 °F 29% 30.29 in 10.0 mi SSW 5.8 mph - N/A   Clear
2:30 PM 48.2 °F - 15.8 °F 27% 30.28 in 10.0 mi WNW 11.5 mph 18.4 mph N/A   Clear
2:50 PM 48.2 °F - 14.0 °F 25% 30.28 in 10.0 mi NE 6.9 mph - N/A   Clear
3:10 PM 48.2 °F - 14.0 °F 25% 30.27 in 10.0 mi SW 6.9 mph - N/A   Clear
3:30 PM 50.0 °F - 14.0 °F 24% 30.27 in 10.0 mi South 4.6 mph - N/A   Clear
3:50 PM 50.0 °F - 15.8 °F 26% 30.26 in 10.0 mi SSW 4.6 mph - N/A   Clear
4:10 PM 50.0 °F - 14.0 °F 24% 30.26 in 10.0 mi South 8.1 mph - N/A   Clear
4:30 PM 50.0 °F - 14.0 °F 24% 30.26 in 10.0 mi WSW 4.6 mph - N/A   Clear
4:50 PM 50.0 °F - 14.0 °F 24% 30.26 in 10.0 mi SE 6.9 mph - N/A   Clear
5:10 PM 51.8 °F - 14.0 °F 22% 30.26 in 10.0 mi SSW 6.9 mph - N/A   Clear
5:30 PM 51.8 °F - 14.0 °F 22% 30.27 in 10.0 mi SW 3.5 mph - N/A   Clear
5:50 PM 50.0 °F - 15.8 °F 26% 30.27 in 10.0 mi South 8.1 mph - N/A   Clear
6:10 PM 50.0 °F - 14.0 °F 24% 30.26 in 10.0 mi South 4.6 mph - N/A   Clear
6:30 PM 50.0 °F - 15.8 °F 26% 30.27 in 10.0 mi South 3.5 mph - N/A   Clear
6:50 PM 50.0 °F - 15.8 °F 26% 30.27 in 10.0 mi South 4.6 mph - N/A   Clear
7:10 PM 48.2 °F - 14.0 °F 25% 30.27 in 10.0 mi South 3.5 mph - N/A   Clear
7:30 PM 48.2 °F - 15.8 °F 27% 30.27 in 10.0 mi SE 3.5 mph - N/A   Clear
7:50 PM 46.4 °F 45.2 °F 15.8 °F 29% 30.27 in 10.0 mi SSE 3.5 mph - N/A   Clear
8:10 PM 44.6 °F - 15.8 °F 31% 30.27 in 10.0 mi Calm Calm - N/A   Clear
8:30 PM 44.6 °F - 15.8 °F 31% 30.27 in 10.0 mi Calm Calm - N/A   Clear
8:50 PM 41.0 °F - 19.4 °F 42% 30.27 in 10.0 mi Calm Calm - N/A   Clear
9:10 PM 39.2 °F - 19.4 °F 45% 30.28 in 10.0 mi Calm Calm - N/A   Clear
9:30 PM 39.2 °F - 21.2 °F 49% 30.28 in 10.0 mi Calm Calm - N/A   Clear
9:50 PM 41.0 °F 38.0 °F 17.6 °F 39% 30.28 in 10.0 mi SE 4.6 mph - N/A   Clear
10:10 PM 41.0 °F - 15.8 °F 36% 30.28 in 10.0 mi Calm Calm - N/A   Clear
10:30 PM 39.2 °F - 17.6 °F 42% 30.28 in 10.0 mi Calm Calm - N/A   Clear
10:50 PM 39.2 °F 37.0 °F 21.2 °F 49% 30.28 in 10.0 mi SE 3.5 mph - N/A   Clear
11:10 PM 41.0 °F 37.1 °F 17.6 °F 39% 30.28 in 10.0 mi SSE 5.8 mph - N/A   Clear
11:30 PM 41.0 °F 37.1 °F 19.4 °F 42% 30.28 in 10.0 mi SSE 5.8 mph - N/A   Clear
11:50 PM 41.0 °F 38.0 °F 23.0 °F 49% 30.27 in 10.0 mi SSE 4.6 mph - N/A   Clear